Time;durP1;ratioP1;P1;durP2;ratioP2;P2;SDS_P1;SDS_P2;PMS_P1;PMS_P2;Temp;Humidity;BMP_temperature;BMP_pressure;BME280_temperature;BME280_humidity;BME280_pressure;Samples;Min_cycle;Max_cycle;Signal;HPM_P1;HPM_P2
2023/12/17 00:01:19;;;;;;;;;;;7.70;99.90;;;;;;5109644;28;19916;-71
2023/12/17 00:03:44;;;;;;;;;;;7.80;99.90;;;;;;5118246;27;20923;-71
2023/12/17 00:06:10;;;;;;;;;;;7.70;99.90;;;;;;5109672;28;19962;-71
2023/12/17 00:08:36;;;;;;;;;;;7.70;99.90;;;;;;5101146;28;19940;-71
2023/12/17 00:11:01;;;;;;;;;;;7.70;99.90;;;;;;5103661;27;19916;-71
2023/12/17 00:13:27;;;;;;;;;;;7.70;99.90;;;;;;5096857;28;19962;-71
2023/12/17 00:15:52;;;;;;;;;;;7.70;99.90;;;;;;5108373;28;20316;-71
2023/12/17 00:18:18;;;;;;;;;;;7.70;99.90;;;;;;5108634;28;19912;-71
2023/12/17 00:20:44;;;;;;;;;;;7.70;99.90;;;;;;5117666;27;19915;-71
2023/12/17 00:23:09;;;;;;;;;;;7.70;99.90;;;;;;5107890;28;20014;-71
2023/12/17 00:25:35;;;;;;;;;;;7.70;99.90;;;;;;5106816;28;20555;-71
2023/12/17 00:28:00;;;;;;;;;;;7.70;99.90;;;;;;5109410;28;19912;-72
2023/12/17 00:30:26;;;;;;;;;;;7.70;99.90;;;;;;5108737;28;19961;-72
2023/12/17 00:32:51;;;;;;;;;;;7.70;99.90;;;;;;5112250;27;19911;-71
2023/12/17 00:35:18;;;;;;;;;;;7.70;99.90;;;;;;5108975;28;20311;-71
2023/12/17 00:37:43;;;;;;;;;;;7.70;99.90;;;;;;5111763;27;19946;-71
2023/12/17 00:40:09;;;;;;;;;;;7.70;99.90;;;;;;5105972;28;20260;-71
2023/12/17 00:42:34;;;;;;;;;;;7.70;99.90;;;;;;5108532;28;19969;-71
2023/12/17 00:45:00;;;;;;;;;;;7.70;99.90;;;;;;5108776;28;20011;-71
2023/12/17 00:47:25;;;;;;;;;;;7.70;99.90;;;;;;5108810;27;20514;-71
2023/12/17 00:49:54;;;;;;;;;;;7.70;99.90;;;;;;5108309;28;19912;-71
2023/12/17 00:52:21;;;;;;;;;;;7.70;99.90;;;;;;5107988;27;20004;-71
2023/12/17 00:54:47;;;;;;;;;;;7.70;99.90;;;;;;5111659;27;20509;-71
2023/12/17 00:57:13;;;;;;;;;;;7.70;99.90;;;;;;5108212;28;19974;-71
2023/12/17 00:59:38;;;;;;;;;;;7.70;99.90;;;;;;5104221;28;20637;-71
2023/12/17 01:02:04;;;;;;;;;;;7.70;99.90;;;;;;5108002;28;19919;-71
2023/12/17 01:04:29;;;;;;;;;;;7.70;99.90;;;;;;5108220;27;20007;-71
2023/12/17 01:06:55;;;;;;;;;;;7.70;99.90;;;;;;5115906;27;19911;-71
2023/12/17 01:09:21;;;;;;;;;;;7.70;99.90;;;;;;5108132;28;20310;-71
2023/12/17 01:11:46;;;;;;;;;;;7.70;99.90;;;;;;5107518;28;19915;-71
2023/12/17 01:14:12;;;;;;;;;;;7.70;99.90;;;;;;5106221;28;19911;-72
2023/12/17 01:16:37;;;;;;;;;;;7.70;99.90;;;;;;5107092;27;20530;-71
2023/12/17 01:19:03;;;;;;;;;;;7.70;99.90;;;;;;5105745;27;20035;-71
2023/12/17 01:21:29;;;;;;;;;;;7.70;99.90;;;;;;5106686;28;19920;-71
2023/12/17 01:23:57;;;;;;;;;;;7.70;99.90;;;;;;5108355;28;19919;-71
2023/12/17 01:26:26;;;;;;;;;;;7.70;99.90;;;;;;5111455;27;20415;-71
2023/12/17 01:28:52;;;;;;;;;;;7.70;99.90;;;;;;5099507;28;19967;-71
2023/12/17 01:31:18;;;;;;;;;;;7.70;99.90;;;;;;5105124;28;20008;-71
2023/12/17 01:33:44;;;;;;;;;;;7.70;99.90;;;;;;5103271;27;19980;-71
2023/12/17 01:36:10;;;;;;;;;;;7.70;99.90;;;;;;5102582;28;19920;-71
2023/12/17 01:38:35;;;;;;;;;;;7.70;99.90;;;;;;5106310;28;19914;-72
2023/12/17 01:41:01;;;;;;;;;;;7.70;99.90;;;;;;5107804;28;19922;-71
2023/12/17 01:43:27;;;;;;;;;;;7.70;99.90;;;;;;5108345;27;19908;-71
2023/12/17 01:45:53;;;;;;;;;;;7.70;99.90;;;;;;5103617;28;19916;-71
2023/12/17 01:48:19;;;;;;;;;;;7.70;99.90;;;;;;5107714;28;20317;-71
2023/12/17 01:50:45;;;;;;;;;;;7.70;99.90;;;;;;5097304;28;19912;-71
2023/12/17 01:53:11;;;;;;;;;;;7.70;99.90;;;;;;5107774;28;20052;-71
2023/12/17 01:55:37;;;;;;;;;;;7.70;99.90;;;;;;5105501;28;20416;-71
2023/12/17 01:58:02;;;;;;;;;;;7.70;99.90;;;;;;5107339;28;19919;-71
2023/12/17 02:00:28;;;;;;;;;;;7.70;99.90;;;;;;5106893;28;20396;-71
2023/12/17 02:02:54;;;;;;;;;;;7.70;99.90;;;;;;5105935;28;20501;-71
2023/12/17 02:05:19;;;;;;;;;;;7.70;99.90;;;;;;5107792;27;19908;-71
2023/12/17 02:07:45;;;;;;;;;;;7.70;99.90;;;;;;5098864;28;19912;-71
2023/12/17 02:10:10;;;;;;;;;;;7.70;99.90;;;;;;5107480;27;20242;-71
2023/12/17 02:12:36;;;;;;;;;;;7.70;99.90;;;;;;5105975;28;20555;-71
2023/12/17 02:15:01;;;;;;;;;;;7.70;99.90;;;;;;5106830;27;19911;-71
2023/12/17 02:17:30;;;;;;;;;;;7.70;99.90;;;;;;5103313;28;19911;-71
2023/12/17 02:19:56;;;;;;;;;;;7.70;99.90;;;;;;5116013;27;19985;-71
2023/12/17 02:22:22;;;;;;;;;;;7.70;99.90;;;;;;5109188;27;19955;-71
2023/12/17 02:24:47;;;;;;;;;;;7.70;99.90;;;;;;5104181;28;19916;-71
2023/12/17 02:27:18;;;;;;;;;;;7.70;99.90;;;;;;5106997;27;19922;-71
2023/12/17 02:29:44;;;;;;;;;;;7.70;99.90;;;;;;5103608;28;19971;-71
2023/12/17 02:32:09;;;;;;;;;;;7.60;99.90;;;;;;5109701;27;19919;-71
2023/12/17 02:34:35;;;;;;;;;;;7.70;99.90;;;;;;5106914;27;19922;-71
2023/12/17 02:37:00;;;;;;;;;;;7.70;99.90;;;;;;5094896;28;19908;-71
2023/12/17 02:39:26;;;;;;;;;;;7.70;99.90;;;;;;5103788;28;19923;-71
2023/12/17 02:41:51;;;;;;;;;;;7.70;99.90;;;;;;5106620;28;20260;-71
2023/12/17 02:44:17;;;;;;;;;;;7.60;99.90;;;;;;5105889;28;19915;-71
2023/12/17 02:46:42;;;;;;;;;;;7.60;99.90;;;;;;5105988;28;20278;-71
2023/12/17 02:49:08;;;;;;;;;;;7.70;99.90;;;;;;5106842;28;19919;-71
2023/12/17 02:51:33;;;;;;;;;;;7.70;99.90;;;;;;5104848;28;19912;-71
2023/12/17 02:53:59;;;;;;;;;;;7.70;99.90;;;;;;5106152;28;19922;-71
2023/12/17 02:56:24;;;;;;;;;;;7.70;99.90;;;;;;5104381;28;19911;-71
2023/12/17 02:58:50;;;;;;;;;;;7.60;99.90;;;;;;5109840;27;19934;-71
2023/12/17 03:01:15;;;;;;;;;;;7.70;99.90;;;;;;5105780;28;19998;-71
2023/12/17 03:03:41;;;;;;;;;;;7.70;99.90;;;;;;5102922;28;19912;-71
2023/12/17 03:06:06;;;;;;;;;;;7.70;99.90;;;;;;5105042;28;19916;-71
2023/12/17 03:08:32;;;;;;;;;;;7.60;99.90;;;;;;5102314;28;19919;-71
2023/12/17 03:10:57;;;;;;;;;;;7.70;99.90;;;;;;5106514;28;19962;-71
2023/12/17 03:13:23;;;;;;;;;;;7.60;99.90;;;;;;5107150;28;19919;-71
2023/12/17 03:15:48;;;;;;;;;;;7.60;99.90;;;;;;5105451;28;20663;-71
2023/12/17 03:18:16;;;;;;;;;;;7.60;99.90;;;;;;5107249;27;19933;-71
2023/12/17 03:20:42;;;;;;;;;;;7.60;99.90;;;;;;5106025;28;19915;-71
2023/12/17 03:23:07;;;;;;;;;;;7.60;99.90;;;;;;5096779;28;19912;-71
2023/12/17 03:25:33;;;;;;;;;;;7.60;99.90;;;;;;5106002;28;20055;-71
2023/12/17 03:27:58;;;;;;;;;;;7.60;99.90;;;;;;5108569;27;20583;-71
2023/12/17 03:30:24;;;;;;;;;;;7.60;99.90;;;;;;5105591;28;19939;-71
2023/12/17 03:32:49;;;;;;;;;;;7.60;99.90;;;;;;5108404;28;19960;-71
2023/12/17 03:35:15;;;;;;;;;;;7.60;99.90;;;;;;5097824;28;19960;-71
2023/12/17 03:37:40;;;;;;;;;;;7.60;99.90;;;;;;5116295;28;19931;-71
2023/12/17 03:40:06;;;;;;;;;;;7.60;99.90;;;;;;5113066;27;20265;-71
2023/12/17 03:42:32;;;;;;;;;;;7.60;99.90;;;;;;5101664;28;19907;-71
2023/12/17 03:44:57;;;;;;;;;;;7.60;99.90;;;;;;5105807;28;19911;-71
2023/12/17 03:47:23;;;;;;;;;;;7.60;99.90;;;;;;5105494;28;19912;-71
2023/12/17 03:49:49;;;;;;;;;;;7.60;99.90;;;;;;5105583;28;19915;-71
2023/12/17 03:52:14;;;;;;;;;;;7.60;99.90;;;;;;5106297;28;19935;-71
2023/12/17 03:54:40;;;;;;;;;;;7.60;99.90;;;;;;5105776;28;20292;-71
2023/12/17 03:57:06;;;;;;;;;;;7.60;99.90;;;;;;5104156;28;19915;-71
2023/12/17 03:59:31;;;;;;;;;;;7.60;99.90;;;;;;5105230;28;19916;-71
2023/12/17 04:02:01;;;;;;;;;;;7.60;99.90;;;;;;5105734;28;19915;-71
2023/12/17 04:04:27;;;;;;;;;;;7.60;99.90;;;;;;5105864;28;20486;-71
2023/12/17 04:06:52;;;;;;;;;;;7.60;99.90;;;;;;5103893;28;20002;-71
2023/12/17 04:09:19;;;;;;;;;;;7.60;99.90;;;;;;5106302;28;19951;-71
2023/12/17 04:11:44;;;;;;;;;;;7.60;99.90;;;;;;5107616;27;19964;-71
2023/12/17 04:14:10;;;;;;;;;;;7.60;99.90;;;;;;5105626;28;19994;-71
2023/12/17 04:16:35;;;;;;;;;;;7.60;99.90;;;;;;5104787;28;20015;-71
2023/12/17 04:19:01;;;;;;;;;;;7.60;99.90;;;;;;5103461;28;20718;-71
2023/12/17 04:21:27;;;;;;;;;;;7.60;99.90;;;;;;5109257;27;19959;-71
2023/12/17 04:23:53;;;;;;;;;;;7.60;99.90;;;;;;5104001;28;20310;-71
2023/12/17 04:26:19;;;;;;;;;;;7.60;99.90;;;;;;5105618;28;20776;-71
2023/12/17 04:28:44;;;;;;;;;;;7.60;99.90;;;;;;5106291;28;20030;-71
2023/12/17 04:31:10;;;;;;;;;;;7.60;99.90;;;;;;5105491;28;19908;-71
2023/12/17 04:33:35;;;;;;;;;;;7.60;99.90;;;;;;5106850;28;20391;-71
2023/12/17 04:36:01;;;;;;;;;;;7.60;99.90;;;;;;5105300;28;19911;-71
2023/12/17 04:38:27;;;;;;;;;;;7.60;99.90;;;;;;5106117;28;19976;-71
2023/12/17 04:40:52;;;;;;;;;;;7.60;99.90;;;;;;5107974;28;19916;-71
2023/12/17 04:43:18;;;;;;;;;;;7.60;99.90;;;;;;5109952;27;19927;-72
2023/12/17 04:45:43;;;;;;;;;;;7.60;99.90;;;;;;5111951;27;20007;-71
2023/12/17 04:48:09;;;;;;;;;;;7.60;99.90;;;;;;5109035;28;19908;-71
2023/12/17 04:50:34;;;;;;;;;;;7.60;99.90;;;;;;5108125;28;19999;-71
2023/12/17 04:53:00;;;;;;;;;;;7.60;99.90;;;;;;5107590;28;19918;-71
2023/12/17 04:55:25;;;;;;;;;;;7.50;99.90;;;;;;5108667;28;19950;-71
2023/12/17 04:57:51;;;;;;;;;;;7.60;99.90;;;;;;5107053;28;19939;-71
2023/12/17 05:00:16;;;;;;;;;;;7.60;99.90;;;;;;5108644;28;20006;-71
2023/12/17 05:02:42;;;;;;;;;;;7.60;99.90;;;;;;5110284;27;19980;-71
2023/12/17 05:05:07;;;;;;;;;;;7.60;99.90;;;;;;5108807;28;19911;-71
2023/12/17 05:07:33;;;;;;;;;;;7.60;99.90;;;;;;5108443;28;19923;-71
2023/12/17 05:09:59;;;;;;;;;;;7.60;99.90;;;;;;5108920;28;19911;-71
2023/12/17 05:12:24;;;;;;;;;;;7.60;99.90;;;;;;5111267;27;19919;-71
2023/12/17 05:14:50;;;;;;;;;;;7.60;99.90;;;;;;5108157;28;19927;-71
2023/12/17 05:17:15;;;;;;;;;;;7.60;99.90;;;;;;5106570;28;19908;-71
2023/12/17 05:19:41;;;;;;;;;;;7.50;99.90;;;;;;5108268;28;19907;-71
2023/12/17 05:22:06;;;;;;;;;;;7.60;99.90;;;;;;5103359;28;19987;-71
2023/12/17 05:24:32;;;;;;;;;;;7.50;99.90;;;;;;5105033;28;19916;-71
2023/12/17 05:26:57;;;;;;;;;;;7.60;99.90;;;;;;5108244;28;19911;-71
2023/12/17 05:29:23;;;;;;;;;;;7.60;99.90;;;;;;5105181;28;20335;-71
2023/12/17 05:31:50;;;;;;;;;;;7.50;99.90;;;;;;5106929;28;20412;-71
2023/12/17 05:34:16;;;;;;;;;;;7.50;99.90;;;;;;5108004;28;19947;-71
2023/12/17 05:36:42;;;;;;;;;;;7.50;99.90;;;;;;5109247;27;20420;-71
2023/12/17 05:39:07;;;;;;;;;;;7.60;99.90;;;;;;5106755;27;20612;-71
2023/12/17 05:41:33;;;;;;;;;;;7.50;99.90;;;;;;5107801;27;20316;-71
2023/12/17 05:43:58;;;;;;;;;;;7.50;99.90;;;;;;5106362;28;19919;-71
2023/12/17 05:46:25;;;;;;;;;;;7.50;99.90;;;;;;5107335;28;20410;-71
2023/12/17 05:48:51;;;;;;;;;;;7.50;99.90;;;;;;5106956;28;19932;-71
2023/12/17 05:51:16;;;;;;;;;;;7.50;99.90;;;;;;5107878;28;19912;-71
2023/12/17 05:53:42;;;;;;;;;;;7.50;99.90;;;;;;5107818;28;19947;-71
2023/12/17 05:56:07;;;;;;;;;;;7.50;99.90;;;;;;5105981;28;19924;-71
2023/12/17 05:58:33;;;;;;;;;;;7.50;99.90;;;;;;5107604;28;20376;-71
2023/12/17 06:00:59;;;;;;;;;;;7.50;99.90;;;;;;5107852;28;19916;-71
2023/12/17 06:03:24;;;;;;;;;;;7.50;99.90;;;;;;5106877;28;19912;-71
2023/12/17 06:05:50;;;;;;;;;;;7.50;99.90;;;;;;5102458;27;20187;-71
2023/12/17 06:08:15;;;;;;;;;;;7.50;99.90;;;;;;5105342;28;19907;-71
2023/12/17 06:10:41;;;;;;;;;;;7.50;99.90;;;;;;5113919;27;19934;-71
2023/12/17 06:13:06;;;;;;;;;;;7.50;99.90;;;;;;5106996;27;19912;-71
2023/12/17 06:15:32;;;;;;;;;;;7.50;99.90;;;;;;5104804;28;20006;-72
2023/12/17 06:17:57;;;;;;;;;;;7.50;99.90;;;;;;5107504;28;19912;-72
2023/12/17 06:20:25;;;;;;;;;;;7.50;99.90;;;;;;5105937;27;19953;-71
2023/12/17 06:22:52;;;;;;;;;;;7.50;99.90;;;;;;5107274;27;19911;-71
2023/12/17 06:25:17;;;;;;;;;;;7.50;99.90;;;;;;5106949;28;19994;-71
2023/12/17 06:27:43;;;;;;;;;;;7.50;99.90;;;;;;5106508;27;19926;-72
2023/12/17 06:30:09;;;;;;;;;;;7.50;99.90;;;;;;5104882;28;20427;-72
2023/12/17 06:32:34;;;;;;;;;;;7.50;99.90;;;;;;5104878;28;19919;-71
2023/12/17 06:35:00;;;;;;;;;;;7.50;99.90;;;;;;5105531;28;19933;-71
2023/12/17 06:37:25;;;;;;;;;;;7.50;99.90;;;;;;5097960;28;19912;-71
2023/12/17 06:39:51;;;;;;;;;;;7.50;99.90;;;;;;5097712;28;21359;-71
2023/12/17 06:42:16;;;;;;;;;;;7.50;99.90;;;;;;5108377;27;19912;-71
2023/12/17 06:44:42;;;;;;;;;;;7.50;99.90;;;;;;5106342;28;20007;-71
2023/12/17 06:47:07;;;;;;;;;;;7.50;99.90;;;;;;5106558;28;20483;-71
2023/12/17 06:49:35;;;;;;;;;;;7.50;99.90;;;;;;5106677;27;19911;-71
2023/12/17 06:52:01;;;;;;;;;;;7.50;99.90;;;;;;5107042;28;19994;-71
2023/12/17 06:54:26;;;;;;;;;;;7.50;99.90;;;;;;5105468;28;20089;-71
2023/12/17 06:56:52;;;;;;;;;;;7.50;99.90;;;;;;5104466;27;19915;-71
2023/12/17 06:59:17;;;;;;;;;;;7.50;99.90;;;;;;5106361;28;19916;-71
2023/12/17 07:01:43;;;;;;;;;;;7.50;99.90;;;;;;5105475;28;19939;-71
2023/12/17 07:04:08;;;;;;;;;;;7.50;99.90;;;;;;5104312;28;20238;-71
2023/12/17 07:06:35;;;;;;;;;;;7.50;99.90;;;;;;5104526;28;19912;-71
2023/12/17 07:09:01;;;;;;;;;;;7.50;99.90;;;;;;5106426;28;19919;-71
2023/12/17 07:11:27;;;;;;;;;;;7.50;99.90;;;;;;5103098;28;20056;-71
2023/12/17 07:13:52;;;;;;;;;;;7.50;99.90;;;;;;5105489;28;19916;-71
2023/12/17 07:16:25;;;;;;;;;;;7.50;99.90;;;;;;5105697;28;19907;-71
2023/12/17 07:18:50;;;;;;;;;;;7.50;99.90;;;;;;5104977;28;19915;-71
2023/12/17 07:21:16;;;;;;;;;;;7.50;99.90;;;;;;5112205;27;19912;-71
2023/12/17 07:23:42;;;;;;;;;;;7.50;99.90;;;;;;5113028;27;20297;-71
2023/12/17 07:26:07;;;;;;;;;;;7.50;99.90;;;;;;5106690;28;20349;-71
2023/12/17 07:28:33;;;;;;;;;;;7.50;99.90;;;;;;5105736;28;20267;-71
2023/12/17 07:30:58;;;;;;;;;;;7.50;99.90;;;;;;5103721;28;19927;-71
2023/12/17 07:33:24;;;;;;;;;;;7.40;99.90;;;;;;5104927;28;19911;-71
2023/12/17 07:35:50;;;;;;;;;;;7.50;99.90;;;;;;5104439;28;20002;-71
2023/12/17 07:38:16;;;;;;;;;;;7.40;99.90;;;;;;5105791;28;20003;-71
2023/12/17 07:40:42;;;;;;;;;;;7.50;99.90;;;;;;5104057;28;20014;-71
2023/12/17 07:43:07;;;;;;;;;;;7.50;99.90;;;;;;5104437;28;20332;-71
2023/12/17 07:45:33;;;;;;;;;;;7.50;99.90;;;;;;5107123;28;20587;-71
2023/12/17 07:47:59;;;;;;;;;;;7.50;99.90;;;;;;5105640;28;19912;-71
2023/12/17 07:50:25;;;;;;;;;;;7.50;99.90;;;;;;5100481;28;19922;-71
2023/12/17 07:52:50;;;;;;;;;;;7.50;99.90;;;;;;5105327;28;19943;-71
2023/12/17 07:55:16;;;;;;;;;;;7.50;99.90;;;;;;5105499;28;19986;-71
2023/12/17 07:57:41;;;;;;;;;;;7.50;99.90;;;;;;5102551;28;20260;-71
2023/12/17 08:00:11;;;;;;;;;;;7.50;99.90;;;;;;5105665;28;19972;-71
2023/12/17 08:02:37;;;;;;;;;;;7.50;99.90;;;;;;5106042;28;19990;-71
2023/12/17 08:05:05;;;;;;;;;;;7.40;99.90;;;;;;5105753;27;20453;-71
2023/12/17 08:07:34;;;;;;;;;;;7.50;99.90;;;;;;5103054;28;19912;-71
2023/12/17 08:10:00;;;;;;;;;;;7.50;99.90;;;;;;5101786;28;19947;-71
2023/12/17 08:12:25;;;;;;;;;;;7.50;99.90;;;;;;5105916;28;20320;-71
2023/12/17 08:14:51;;;;;;;;;;;7.50;99.90;;;;;;5108850;27;19916;-71
2023/12/17 08:17:16;;;;;;;;;;;7.50;99.90;;;;;;5109625;28;20417;-71
2023/12/17 08:19:42;;;;;;;;;;;7.50;99.90;;;;;;5104929;28;19998;-71
2023/12/17 08:22:11;;;;;;;;;;;7.50;99.90;;;;;;5109775;28;20336;-71
2023/12/17 08:24:36;;;;;;;;;;;7.40;99.90;;;;;;5108935;28;19922;-71
2023/12/17 08:27:02;;;;;;;;;;;7.50;99.90;;;;;;5108278;28;19912;-71
2023/12/17 08:29:28;;;;;;;;;;;7.40;99.90;;;;;;5109271;28;19930;-71
2023/12/17 08:31:55;;;;;;;;;;;7.50;99.90;;;;;;5117858;27;19915;-71
2023/12/17 08:34:22;;;;;;;;;;;7.50;99.90;;;;;;5099744;28;19908;-71
2023/12/17 08:36:47;;;;;;;;;;;7.50;99.90;;;;;;5108423;28;19915;-71
2023/12/17 08:39:13;;;;;;;;;;;7.50;99.90;;;;;;5110857;27;20610;-71
2023/12/17 08:41:39;;;;;;;;;;;7.50;99.90;;;;;;5108883;27;19927;-71
2023/12/17 08:44:04;;;;;;;;;;;7.50;99.90;;;;;;5107554;28;20594;-71
2023/12/17 08:46:30;;;;;;;;;;;7.50;99.90;;;;;;5108726;28;19912;-71
2023/12/17 08:48:55;;;;;;;;;;;7.50;99.90;;;;;;5107720;28;20417;-71
2023/12/17 08:51:21;;;;;;;;;;;7.50;99.90;;;;;;5107737;28;19911;-71
2023/12/17 08:53:47;;;;;;;;;;;7.50;99.90;;;;;;5101059;28;19912;-71
2023/12/17 08:56:13;;;;;;;;;;;7.50;99.90;;;;;;5108550;28;19923;-71
2023/12/17 08:58:38;;;;;;;;;;;7.50;99.90;;;;;;5109698;27;20364;-71
2023/12/17 09:01:04;;;;;;;;;;;7.50;99.90;;;;;;5120041;27;19945;-71
2023/12/17 09:03:30;;;;;;;;;;;7.50;99.90;;;;;;5113085;27;19942;-71
2023/12/17 09:05:55;;;;;;;;;;;7.50;99.90;;;;;;5099754;28;19911;-71
2023/12/17 09:08:21;;;;;;;;;;;7.50;99.90;;;;;;5108891;28;19954;-71
2023/12/17 09:10:47;;;;;;;;;;;7.50;99.90;;;;;;5108339;28;20291;-71
2023/12/17 09:13:12;;;;;;;;;;;7.40;99.90;;;;;;5109318;28;19908;-71
2023/12/17 09:15:38;;;;;;;;;;;7.50;99.90;;;;;;5108337;28;19922;-72
2023/12/17 09:18:04;;;;;;;;;;;7.50;99.90;;;;;;5099034;28;20453;-71
2023/12/17 09:20:30;;;;;;;;;;;7.50;99.90;;;;;;5108464;28;19921;-72
2023/12/17 09:22:55;;;;;;;;;;;7.50;99.90;;;;;;5107155;27;19973;-72
2023/12/17 09:25:21;;;;;;;;;;;7.50;99.90;;;;;;5114991;27;19915;-71
2023/12/17 09:27:46;;;;;;;;;;;7.50;99.90;;;;;;5126913;27;20541;-71
2023/12/17 09:30:12;;;;;;;;;;;7.50;99.90;;;;;;5113274;27;20006;-71
2023/12/17 09:32:37;;;;;;;;;;;7.50;99.90;;;;;;5109974;27;19914;-71
2023/12/17 09:35:03;;;;;;;;;;;7.50;99.90;;;;;;5112459;27;19933;-71
2023/12/17 09:37:29;;;;;;;;;;;7.40;99.90;;;;;;5112698;27;20052;-71
2023/12/17 09:39:54;;;;;;;;;;;7.50;99.90;;;;;;5099409;28;20019;-71
2023/12/17 09:42:20;;;;;;;;;;;7.50;99.90;;;;;;5107669;28;19916;-71
2023/12/17 09:44:46;;;;;;;;;;;7.50;99.90;;;;;;5105982;28;19908;-71
2023/12/17 09:47:11;;;;;;;;;;;7.50;99.90;;;;;;5107283;28;19908;-71
2023/12/17 09:49:37;;;;;;;;;;;7.50;99.90;;;;;;5107395;28;19919;-71
2023/12/17 09:52:11;;;;;;;;;;;7.50;99.90;;;;;;5097351;27;20364;-71
2023/12/17 09:54:37;;;;;;;;;;;7.50;99.90;;;;;;5107582;28;20045;-71
2023/12/17 09:57:04;;;;;;;;;;;7.50;99.90;;;;;;5107851;28;20002;-72
2023/12/17 09:59:29;;;;;;;;;;;7.50;99.90;;;;;;5107260;27;19980;-71
2023/12/17 10:01:55;;;;;;;;;;;7.50;99.90;;;;;;5096482;28;19916;-71
2023/12/17 10:04:24;;;;;;;;;;;7.50;99.90;;;;;;5095785;28;20506;-71
2023/12/17 10:06:53;;;;;;;;;;;7.50;99.90;;;;;;5105658;27;19985;-71
2023/12/17 10:09:18;;;;;;;;;;;7.50;99.90;;;;;;5086202;28;19916;-71
2023/12/17 10:11:44;;;;;;;;;;;7.50;99.90;;;;;;5087429;28;20295;-71
2023/12/17 10:14:19;;;;;;;;;;;7.50;99.90;;;;;;5106873;28;19912;-71
2023/12/17 10:16:45;;;;;;;;;;;7.60;99.90;;;;;;5095148;28;20288;-72
2023/12/17 10:19:12;;;;;;;;;;;7.60;99.90;;;;;;5100180;28;19919;-71
2023/12/17 10:21:37;;;;;;;;;;;7.60;99.90;;;;;;5103630;27;19916;-71
2023/12/17 10:24:03;;;;;;;;;;;7.60;99.90;;;;;;5098572;28;19912;-71
2023/12/17 10:26:40;;;;;;;;;;;7.60;99.90;;;;;;5106202;28;19921;-71
2023/12/17 10:29:06;;;;;;;;;;;7.60;99.90;;;;;;5097305;28;19920;-71
2023/12/17 10:31:31;;;;;;;;;;;7.60;99.90;;;;;;5104069;28;19915;-71
2023/12/17 10:34:01;;;;;;;;;;;7.60;99.90;;;;;;5098562;28;19916;-72
2023/12/17 10:36:26;;;;;;;;;;;7.60;99.90;;;;;;5106847;27;19908;-72
2023/12/17 10:38:52;;;;;;;;;;;7.60;99.90;;;;;;5108667;27;19918;-71
2023/12/17 10:41:18;;;;;;;;;;;7.70;99.90;;;;;;5098345;27;19919;-72
2023/12/17 10:43:44;;;;;;;;;;;7.70;99.90;;;;;;5088294;27;20353;-71
2023/12/17 10:46:11;;;;;;;;;;;7.70;99.90;;;;;;5101381;27;19968;-71
2023/12/17 10:48:37;;;;;;;;;;;7.70;99.90;;;;;;5115250;27;20268;-71
2023/12/17 10:51:03;;;;;;;;;;;7.70;99.90;;;;;;5110480;27;20425;-72
2023/12/17 10:53:28;;;;;;;;;;;7.70;99.90;;;;;;5109630;27;20545;-71
2023/12/17 10:55:54;;;;;;;;;;;7.70;99.90;;;;;;5103577;27;19911;-71
2023/12/17 10:58:21;;;;;;;;;;;7.70;99.90;;;;;;5100864;28;19912;-71
2023/12/17 11:00:46;;;;;;;;;;;7.70;99.90;;;;;;5106886;27;19930;-71
2023/12/17 11:03:13;;;;;;;;;;;7.70;99.90;;;;;;5111627;27;20284;-71
2023/12/17 11:05:53;;;;;;;;;;;7.70;99.90;;;;;;5104413;28;20427;-71
2023/12/17 11:08:21;;;;;;;;;;;7.80;99.90;;;;;;5101283;28;19918;-71
2023/12/17 11:10:46;;;;;;;;;;;7.70;99.90;;;;;;5103148;28;19911;-72
2023/12/17 11:13:13;;;;;;;;;;;7.80;99.90;;;;;;5102419;28;19919;-72
2023/12/17 11:15:38;;;;;;;;;;;7.80;99.90;;;;;;5101608;28;20607;-72
2023/12/17 11:18:04;;;;;;;;;;;7.80;99.90;;;;;;5103169;28;19919;-71
2023/12/17 11:20:33;;;;;;;;;;;7.80;99.90;;;;;;5100318;28;19954;-72
2023/12/17 11:23:00;;;;;;;;;;;7.80;99.90;;;;;;5104345;27;19919;-71
2023/12/17 11:25:28;;;;;;;;;;;7.80;99.90;;;;;;5105330;27;20435;-71
2023/12/17 11:27:54;;;;;;;;;;;7.80;99.90;;;;;;5104208;28;19923;-72
2023/12/17 11:30:29;;;;;;;;;;;7.80;99.90;;;;;;5103178;28;19919;-72
2023/12/17 11:32:58;;;;;;;;;;;7.80;99.90;;;;;;5107429;27;19912;-72
2023/12/17 11:35:24;;;;;;;;;;;7.80;99.90;;;;;;5101907;28;19943;-71
2023/12/17 11:37:50;;;;;;;;;;;7.80;99.90;;;;;;5104560;28;19991;-71
2023/12/17 11:40:16;;;;;;;;;;;7.80;99.90;;;;;;5103910;28;20105;-71
2023/12/17 11:42:53;;;;;;;;;;;7.90;99.90;;;;;;5104401;28;19912;-71
2023/12/17 11:45:29;;;;;;;;;;;7.90;99.90;;;;;;5104175;28;19916;-71
2023/12/17 11:47:55;;;;;;;;;;;7.90;99.90;;;;;;5106399;28;20372;-71
2023/12/17 11:50:20;;;;;;;;;;;7.90;99.90;;;;;;5107309;28;19918;-72
2023/12/17 11:53:00;;;;;;;;;;;7.90;99.90;;;;;;5102623;28;19931;-71
2023/12/17 11:55:25;;;;;;;;;;;8.00;99.90;;;;;;5088080;28;20361;-71
2023/12/17 11:57:59;;;;;;;;;;;8.00;99.90;;;;;;5097329;28;19907;-71
2023/12/17 12:00:24;;;;;;;;;;;8.00;99.90;;;;;;5129960;27;19916;-72
2023/12/17 12:02:50;;;;;;;;;;;8.00;99.90;;;;;;5110305;27;19912;-71
2023/12/17 12:05:17;;;;;;;;;;;8.00;99.90;;;;;;5097376;27;19934;-72
2023/12/17 12:07:43;;;;;;;;;;;8.10;99.90;;;;;;5097220;27;19919;-72
2023/12/17 12:10:09;;;;;;;;;;;8.10;99.90;;;;;;5106254;28;19950;-71
2023/12/17 12:12:34;;;;;;;;;;;8.10;99.90;;;;;;5105495;28;20524;-71
2023/12/17 12:15:02;;;;;;;;;;;8.10;99.90;;;;;;5103505;28;19919;-71
2023/12/17 12:17:41;;;;;;;;;;;8.10;99.90;;;;;;5102348;27;19965;-72
2023/12/17 12:20:07;;;;;;;;;;;8.10;99.90;;;;;;5117478;27;19912;-72
2023/12/17 12:22:37;;;;;;;;;;;8.10;99.90;;;;;;5122245;27;20268;-72
2023/12/17 12:25:03;;;;;;;;;;;8.20;99.90;;;;;;5116667;27;19923;-72
2023/12/17 12:27:29;;;;;;;;;;;8.20;99.90;;;;;;5113604;27;19912;-72
2023/12/17 12:29:55;;;;;;;;;;;8.20;99.90;;;;;;5117588;27;19968;-72
2023/12/17 12:32:33;;;;;;;;;;;8.20;99.90;;;;;;5109459;28;19915;-71
2023/12/17 12:34:59;;;;;;;;;;;8.20;99.90;;;;;;5109723;27;19999;-72
2023/12/17 12:37:32;;;;;;;;;;;8.20;99.90;;;;;;5109325;27;20333;-71
2023/12/17 12:39:57;;;;;;;;;;;8.20;99.90;;;;;;5118211;27;19920;-71
2023/12/17 12:42:23;;;;;;;;;;;8.20;99.90;;;;;;5118429;27;20002;-72
2023/12/17 12:44:49;;;;;;;;;;;8.20;99.90;;;;;;5115412;27;20024;-71
2023/12/17 12:47:15;;;;;;;;;;;8.30;99.90;;;;;;5121136;27;19907;-72
2023/12/17 12:49:40;;;;;;;;;;;8.30;99.90;;;;;;5114162;27;19907;-71
2023/12/17 12:52:06;;;;;;;;;;;8.30;99.90;;;;;;5110245;28;19912;-71
2023/12/17 12:54:31;;;;;;;;;;;8.30;99.90;;;;;;5118708;27;19915;-71
2023/12/17 12:56:56;;;;;;;;;;;8.30;99.90;;;;;;5114303;27;20367;-71
2023/12/17 12:59:22;;;;;;;;;;;8.30;99.90;;;;;;5105744;27;19968;-71
2023/12/17 13:01:47;;;;;;;;;;;8.30;99.90;;;;;;5109148;27;19915;-71
2023/12/17 13:04:13;;;;;;;;;;;8.30;99.90;;;;;;5114879;27;20424;-72
2023/12/17 13:06:39;;;;;;;;;;;8.30;99.90;;;;;;5116158;27;19971;-72
2023/12/17 13:09:07;;;;;;;;;;;8.30;99.90;;;;;;5115727;27;19919;-72
2023/12/17 13:11:33;;;;;;;;;;;8.30;99.90;;;;;;5121511;27;19925;-72
2023/12/17 13:13:59;;;;;;;;;;;8.30;99.90;;;;;;5109772;27;20353;-72
2023/12/17 13:16:24;;;;;;;;;;;8.40;99.90;;;;;;5114681;27;20383;-72
2023/12/17 13:18:50;;;;;;;;;;;8.30;99.90;;;;;;5107469;28;19947;-72
2023/12/17 13:21:15;;;;;;;;;;;8.30;99.90;;;;;;5107034;27;19968;-72
2023/12/17 13:23:41;;;;;;;;;;;8.30;99.90;;;;;;5109600;27;19915;-72
2023/12/17 13:26:07;;;;;;;;;;;8.30;99.90;;;;;;5107408;27;19923;-72
2023/12/17 13:28:32;;;;;;;;;;;8.30;99.90;;;;;;5110361;27;19973;-72
2023/12/17 13:31:03;;;;;;;;;;;8.30;99.90;;;;;;5109383;27;19984;-71
2023/12/17 13:33:28;;;;;;;;;;;8.30;99.90;;;;;;5110294;27;19950;-71
2023/12/17 13:35:54;;;;;;;;;;;8.30;99.90;;;;;;5107104;28;20395;-71
2023/12/17 13:38:19;;;;;;;;;;;8.30;99.90;;;;;;5095044;27;19911;-72
2023/12/17 13:40:49;;;;;;;;;;;8.20;99.90;;;;;;5105170;27;19977;-72
2023/12/17 13:43:14;;;;;;;;;;;8.20;99.90;;;;;;5077764;27;19919;-72
2023/12/17 13:45:40;;;;;;;;;;;8.20;99.90;;;;;;5104748;27;19922;-72
2023/12/17 13:48:05;;;;;;;;;;;8.20;99.90;;;;;;5110017;27;19916;-72
2023/12/17 13:50:31;;;;;;;;;;;8.20;99.90;;;;;;5108490;27;20027;-72
2023/12/17 13:52:57;;;;;;;;;;;8.10;99.90;;;;;;5108673;28;19908;-72
2023/12/17 13:55:24;;;;;;;;;;;8.10;99.90;;;;;;5108722;27;20385;-71
2023/12/17 13:57:49;;;;;;;;;;;8.10;99.90;;;;;;5109240;27;19915;-71
2023/12/17 14:00:15;;;;;;;;;;;8.10;99.90;;;;;;5107964;28;20011;-72
2023/12/17 14:02:40;;;;;;;;;;;8.10;99.90;;;;;;5109612;27;19908;-71
2023/12/17 14:05:06;;;;;;;;;;;8.10;99.90;;;;;;5108208;27;20359;-71
2023/12/17 14:07:32;;;;;;;;;;;8.00;99.90;;;;;;5107855;28;19961;-71
2023/12/17 14:09:57;;;;;;;;;;;8.00;99.90;;;;;;5108873;27;19965;-71
2023/12/17 14:12:23;;;;;;;;;;;8.00;99.90;;;;;;5107467;28;19911;-72
2023/12/17 14:14:48;;;;;;;;;;;8.00;99.90;;;;;;5108856;28;19916;-71
2023/12/17 14:17:16;;;;;;;;;;;8.00;99.90;;;;;;5109229;28;19912;-71
2023/12/17 14:19:41;;;;;;;;;;;8.00;99.90;;;;;;5106384;28;19912;-72
2023/12/17 14:22:07;;;;;;;;;;;8.00;99.90;;;;;;5107027;28;19915;-71
2023/12/17 14:24:33;;;;;;;;;;;7.90;99.90;;;;;;5115416;27;20573;-72